Time;durP1;ratioP1;P1;durP2;ratioP2;P2;SDS_P1;SDS_P2;PMS_P1;PMS_P2;Temp;Humidity;BMP_temperature;BMP_pressure;BME280_temperature;BME280_humidity;BME280_pressure;Samples;Min_cycle;Max_cycle;Signal;HPM_P1;HPM_P2
2022/03/26 00:00:36;;;;;;;41.23;21.00;;;7.10;1.00;;;;;;5091515;28;20593;-76
2022/03/26 00:03:04;;;;;;;41.00;23.10;;;7.10;1.00;;;;;;5091615;28;20603;-76
2022/03/26 00:05:33;;;;;;;40.83;22.37;;;7.20;1.00;;;;;;5091673;28;20665;-76
2022/03/26 00:08:00;;;;;;;37.57;21.77;;;7.30;1.00;;;;;;5090439;28;20206;-76
2022/03/26 00:10:27;;;;;;;41.03;22.30;;;7.20;1.00;;;;;;5091804;28;20201;-76
2022/03/26 00:12:56;;;;;;;42.80;21.67;;;7.10;1.00;;;;;;5090353;28;20279;-76
2022/03/26 00:15:24;;;;;;;42.93;21.90;;;7.00;1.00;;;;;;5092492;28;20222;-76
2022/03/26 00:17:51;;;;;;;41.63;21.33;;;6.80;1.00;;;;;;5091611;28;20660;-76
2022/03/26 00:20:18;;;;;;;41.37;22.30;;;6.80;68.40;;;;;;5091666;28;20201;-76
2022/03/26 00:22:46;;;;;;;41.47;22.73;;;7.00;4.30;;;;;;5091968;28;20850;-76
2022/03/26 00:25:15;;;;;;;39.83;21.43;;;6.90;1.00;;;;;;5091334;28;20610;-75
2022/03/26 00:27:42;;;;;;;44.17;21.70;;;6.70;1.00;;;;;;5091377;28;20206;-76
2022/03/26 00:30:11;;;;;;;36.10;21.60;;;6.70;1.00;;;;;;5090684;28;20274;-76
2022/03/26 00:32:38;;;;;;;37.17;21.83;;;6.40;1.00;;;;;;5091563;28;20209;-76
2022/03/26 00:35:08;;;;;;;39.53;22.40;;;6.50;1.00;;;;;;5090966;28;20275;-75
2022/03/26 00:37:35;;;;;;;37.53;20.67;;;6.70;1.00;;;;;;5090399;28;20590;-76
2022/03/26 00:40:05;;;;;;;34.97;21.03;;;6.70;1.00;;;;;;5091404;28;20205;-76
2022/03/26 00:42:32;;;;;;;38.57;20.83;;;6.80;1.00;;;;;;5092203;28;20201;-76
2022/03/26 00:44:59;;;;;;;38.23;20.50;;;6.80;99.90;;;;;;5091809;28;20206;-76
2022/03/26 00:47:26;;;;;;;42.33;20.97;;;6.70;1.00;;;;;;5091513;28;20255;-75
2022/03/26 00:49:54;;;;;;;38.03;20.73;;;6.70;1.00;;;;;;5092002;28;20193;-75
2022/03/26 00:52:21;;;;;;;37.30;20.03;;;6.60;1.00;;;;;;5089592;28;20212;-75
2022/03/26 00:54:48;;;;;;;38.10;21.03;;;6.50;1.00;;;;;;5089864;28;20253;-76
2022/03/26 00:57:17;;;;;;;39.13;21.90;;;6.50;1.00;;;;;;5090728;28;20209;-75
2022/03/26 00:59:45;;;;;;;36.53;19.77;;;6.40;1.00;;;;;;5091467;28;20204;-76
2022/03/26 01:02:12;;;;;;;36.07;19.57;;;6.50;1.00;;;;;;5090115;28;20248;-75
2022/03/26 01:04:39;;;;;;;38.27;19.50;;;6.50;1.00;;;;;;5091549;28;20601;-76
2022/03/26 01:07:06;;;;;;;39.47;19.60;;;6.50;1.00;;;;;;5090264;28;20197;-76
2022/03/26 01:09:33;;;;;;;36.37;20.03;;;6.50;1.00;;;;;;5091339;28;20666;-75
2022/03/26 01:12:00;;;;;;;33.83;19.23;;;6.50;1.00;;;;;;5090419;28;20243;-74
2022/03/26 01:14:29;;;;;;;39.40;20.17;;;6.40;1.00;;;;;;5089967;28;20214;-75
2022/03/26 01:16:56;;;;;;;45.60;18.47;;;6.40;1.00;;;;;;5091294;28;20198;-75
2022/03/26 01:19:23;;;;;;;39.47;20.00;;;6.40;1.00;;;;;;5090796;28;20224;-74
2022/03/26 01:21:50;;;;;;;40.63;19.10;;;6.30;1.00;;;;;;5091205;28;20623;-74
2022/03/26 01:24:17;;;;;;;35.60;18.87;;;6.30;1.00;;;;;;5091114;28;20206;-74
2022/03/26 01:26:44;;;;;;;36.03;18.30;;;6.40;1.00;;;;;;5090094;28;20198;-75
2022/03/26 01:29:12;;;;;;;35.90;19.67;;;6.40;1.00;;;;;;5089604;28;20545;-75
2022/03/26 01:31:40;;;;;;;35.20;18.53;;;6.40;1.00;;;;;;5090019;28;20517;-75
2022/03/26 01:34:08;;;;;;;35.93;18.17;;;6.40;1.00;;;;;;5089078;28;20286;-75
2022/03/26 01:36:35;;;;;;;37.53;18.53;;;6.40;1.00;;;;;;5088646;28;20205;-75
2022/03/26 01:39:02;;;;;;;35.73;18.90;;;6.40;1.00;;;;;;5090091;28;20263;-74
2022/03/26 01:41:29;;;;;;;34.20;18.20;;;6.40;1.00;;;;;;5090645;28;20247;-75
2022/03/26 01:43:56;;;;;;;34.03;17.73;;;6.30;1.00;;;;;;5090987;28;20201;-75
2022/03/26 01:46:23;;;;;;;34.07;18.10;;;6.30;1.00;;;;;;5090917;28;20207;-74
2022/03/26 01:48:52;;;;;;;33.03;18.20;;;6.30;1.00;;;;;;5089587;28;20559;-75
2022/03/26 01:51:19;;;;;;;34.00;17.47;;;6.20;1.00;;;;;;5090896;28;20210;-75
2022/03/26 01:53:48;;;;;;;33.67;18.60;;;6.20;1.00;;;;;;5089213;28;20250;-75
2022/03/26 01:56:16;;;;;;;36.07;18.80;;;6.20;1.00;;;;;;5090376;28;20198;-75
2022/03/26 01:58:44;;;;;;;31.93;17.03;;;6.10;1.00;;;;;;5090776;28;20541;-75
2022/03/26 02:01:12;;;;;;;36.00;18.47;;;6.00;1.00;;;;;;5077608;28;20190;-75
2022/03/26 02:03:40;;;;;;;37.47;18.20;;;5.90;1.00;;;;;;5090700;28;20660;-75
2022/03/26 02:06:09;;;;;;;35.27;17.57;;;5.90;1.00;;;;;;5089945;28;20239;-75
2022/03/26 02:08:36;;;;;;;34.23;18.07;;;5.90;1.00;;;;;;5089762;28;20563;-75
2022/03/26 02:11:04;;;;;;;38.10;17.73;;;5.90;1.00;;;;;;5091028;28;20201;-75
2022/03/26 02:13:48;;;;;;;33.13;16.40;;;5.80;1.00;;;;;;5090239;28;20198;-74
2022/03/26 02:16:15;;;;;;;34.27;17.80;;;5.60;1.00;;;;;;5089318;28;20225;-75
2022/03/26 02:18:42;;;;;;;36.00;18.20;;;5.50;1.00;;;;;;5090348;28;20288;-75
2022/03/26 02:21:11;;;;;;;35.37;17.87;;;5.50;99.90;;;;;;5089119;28;20193;-75
2022/03/26 02:23:38;;;;;;;36.70;18.90;;;5.50;99.90;;;;;;5088451;28;20259;-74
2022/03/26 02:26:05;;;;;;;33.50;16.57;;;5.50;99.90;;;;;;5089659;28;20209;-74
2022/03/26 02:28:34;;;;;;;37.70;18.40;;;5.50;99.90;;;;;;5094422;28;20202;-75
2022/03/26 02:31:01;;;;;;;34.93;17.63;;;5.40;44.20;;;;;;5092918;28;20225;-75
2022/03/26 02:33:28;;;;;;;34.57;17.93;;;5.40;99.90;;;;;;5095111;28;20244;-74
2022/03/26 02:35:55;;;;;;;38.27;19.07;;;5.30;99.90;;;;;;5093746;28;20222;-75
2022/03/26 02:38:24;;;;;;;32.33;17.90;;;5.20;99.90;;;;;;5093720;28;20205;-75
2022/03/26 02:40:52;;;;;;;43.57;20.80;;;5.30;1.00;;;;;;5091556;28;20205;-74
2022/03/26 02:43:20;;;;;;;37.67;19.73;;;5.20;1.00;;;;;;5092569;28;20250;-75
2022/03/26 02:45:48;;;;;;;40.23;20.20;;;5.20;1.00;;;;;;5092712;28;20243;-75
2022/03/26 02:48:15;;;;;;;39.20;21.40;;;5.20;1.00;;;;;;5094438;28;20568;-74
2022/03/26 02:50:42;;;;;;;42.17;21.93;;;5.20;1.00;;;;;;5094460;28;20260;-75
2022/03/26 02:53:09;;;;;;;41.80;21.17;;;5.20;1.00;;;;;;5092324;28;20247;-75
2022/03/26 02:55:38;;;;;;;39.57;19.90;;;5.20;1.00;;;;;;5092948;28;20275;-75
2022/03/26 02:58:07;;;;;;;42.23;21.70;;;5.20;1.00;;;;;;5094267;28;20396;-75
2022/03/26 03:00:34;;;;;;;43.27;21.17;;;5.10;1.00;;;;;;5094079;28;20201;-75
2022/03/26 03:03:01;;;;;;;41.63;20.63;;;5.10;1.00;;;;;;5093222;28;20236;-74
2022/03/26 03:05:28;;;;;;;43.43;20.60;;;5.00;1.00;;;;;;5092914;28;20247;-74
2022/03/26 03:07:56;;;;;;;44.73;20.97;;;5.00;1.00;;;;;;5093642;28;20197;-74
2022/03/26 03:10:23;;;;;;;43.03;20.37;;;4.90;1.00;;;;;;5093997;28;20293;-74
2022/03/26 03:12:53;;;;;;;43.93;21.10;;;4.90;1.00;;;;;;5093640;28;20202;-74
2022/03/26 03:15:20;;;;;;;44.37;22.57;;;4.80;1.00;;;;;;5092483;28;20216;-75
2022/03/26 03:17:49;;;;;;;43.83;22.23;;;4.80;99.90;;;;;;5093427;28;20240;-75
2022/03/26 03:20:17;;;;;;;41.30;20.97;;;4.80;99.90;;;;;;5092657;28;20529;-75
2022/03/26 03:22:44;;;;;;;43.53;22.37;;;4.80;99.90;;;;;;5092852;28;20223;-74
2022/03/26 03:25:12;;;;;;;41.97;21.33;;;4.80;93.90;;;;;;5093949;28;20233;-74
2022/03/26 03:27:40;;;;;;;44.93;23.23;;;4.80;99.90;;;;;;5092834;28;20205;-74
2022/03/26 03:30:12;;;;;;;39.80;21.60;;;4.80;89.50;;;;;;5093815;28;20664;-75
2022/03/26 03:32:39;;;;;;;37.97;20.73;;;4.60;99.90;;;;;;5093686;28;20265;-74
2022/03/26 03:35:07;;;;;;;43.97;20.70;;;4.60;1.00;;;;;;5093421;28;20221;-75
2022/03/26 03:37:38;;;;;;;38.53;20.40;;;4.50;1.00;;;;;;5091899;28;20244;-74
2022/03/26 03:40:07;;;;;;;40.00;20.27;;;4.30;64.30;;;;;;5091056;28;20258;-75
2022/03/26 03:42:34;;;;;;;40.20;20.03;;;4.40;99.90;;;;;;5092967;28;20251;-74
2022/03/26 03:45:02;;;;;;;44.17;21.07;;;4.30;99.90;;;;;;5092363;28;20233;-74
2022/03/26 03:47:30;;;;;;;44.37;22.33;;;4.40;99.90;;;;;;5092149;28;20271;-74
2022/03/26 03:49:57;;;;;;;42.97;21.33;;;4.40;99.90;;;;;;5092557;28;20214;-75
2022/03/26 03:52:24;;;;;;;42.53;22.73;;;4.40;99.90;;;;;;5091718;28;20229;-74
2022/03/26 03:54:51;;;;;;;41.77;23.13;;;4.40;99.90;;;;;;5092222;28;20256;-74
2022/03/26 03:57:18;;;;;;;43.93;22.60;;;4.40;99.90;;;;;;5093222;28;20710;-74
2022/03/26 03:59:45;;;;;;;39.57;21.13;;;4.40;99.90;;;;;;5091615;28;20648;-74
2022/03/26 04:02:12;;;;;;;43.73;23.13;;;4.40;1.00;;;;;;5091004;28;20206;-74
2022/03/26 04:04:41;;;;;;;42.80;22.90;;;4.50;1.00;;;;;;5091635;28;20206;-75
2022/03/26 04:07:09;;;;;;;43.63;22.23;;;4.50;1.00;;;;;;5093112;28;20658;-74
2022/03/26 04:09:36;;;;;;;43.07;21.63;;;4.50;99.90;;;;;;5090942;28;20259;-74
2022/03/26 04:12:04;;;;;;;42.17;20.97;;;4.50;99.90;;;;;;5077281;28;20247;-74
2022/03/26 04:14:32;;;;;;;43.33;21.30;;;4.40;99.90;;;;;;5091622;28;20205;-74
2022/03/26 04:16:59;;;;;;;44.20;21.23;;;4.40;99.90;;;;;;5092654;28;20201;-74
2022/03/26 04:19:27;;;;;;;42.20;21.50;;;4.30;1.00;;;;;;5091305;28;20240;-75
2022/03/26 04:21:56;;;;;;;44.97;22.90;;;4.30;1.00;;;;;;5092273;28;20262;-74
2022/03/26 04:24:23;;;;;;;41.93;20.23;;;4.30;1.00;;;;;;5090800;28;20579;-75
2022/03/26 04:26:50;;;;;;;43.47;22.13;;;4.30;1.00;;;;;;5073741;28;20229;-75
2022/03/26 04:29:17;;;;;;;39.57;19.50;;;4.30;1.00;;;;;;5092251;28;20213;-74
2022/03/26 04:31:45;;;;;;;45.93;20.87;;;4.30;1.00;;;;;;5091352;28;20202;-69
2022/03/26 04:34:13;;;;;;;40.27;19.53;;;4.30;1.00;;;;;;5092311;28;20198;-69
2022/03/26 04:36:40;;;;;;;43.00;20.50;;;4.40;1.00;;;;;;5090600;28;20687;-69
2022/03/26 04:39:08;;;;;;;42.73;21.30;;;4.40;99.90;;;;;;5089999;28;20205;-69
2022/03/26 04:41:35;;;;;;;44.13;20.10;;;4.40;99.90;;;;;;5091201;28;20241;-69
2022/03/26 04:44:02;;;;;;;39.77;19.03;;;4.30;99.90;;;;;;5091806;28;20201;-69
2022/03/26 04:46:29;;;;;;;43.53;21.40;;;4.30;99.90;;;;;;5090314;28;20212;-69
2022/03/26 04:48:56;;;;;;;43.50;19.73;;;4.20;99.90;;;;;;5090261;28;20243;-69
2022/03/26 04:51:23;;;;;;;41.97;19.00;;;4.30;99.90;;;;;;5090746;28;20415;-68
2022/03/26 04:53:50;;;;;;;42.33;19.87;;;4.20;99.90;;;;;;5091167;28;20202;-68
2022/03/26 04:56:18;;;;;;;37.87;18.13;;;4.20;99.90;;;;;;5090969;28;20222;-68
2022/03/26 04:58:45;;;;;;;43.73;20.50;;;4.20;1.00;;;;;;5092034;28;20198;-68
2022/03/26 05:01:12;;;;;;;40.87;19.20;;;4.20;1.00;;;;;;5091334;28;20197;-68
2022/03/26 05:03:39;;;;;;;45.03;20.57;;;4.20;1.00;;;;;;5090212;28;20197;-68
2022/03/26 05:06:06;;;;;;;42.47;22.40;;;4.20;1.00;;;;;;5091678;28;20202;-68
2022/03/26 05:08:33;;;;;;;39.97;19.27;;;4.10;1.00;;;;;;5089196;28;20235;-68
2022/03/26 05:11:00;;;;;;;38.57;18.53;;;4.10;1.00;;;;;;5090856;28;20190;-75
2022/03/26 05:13:29;;;;;;;40.23;19.37;;;3.90;99.90;;;;;;5091539;28;20198;-74
2022/03/26 05:15:56;;;;;;;40.70;19.73;;;3.90;1.00;;;;;;5090255;28;20221;-74
2022/03/26 05:18:23;;;;;;;39.47;19.70;;;3.90;1.00;;;;;;5089706;28;20202;-68
2022/03/26 05:20:50;;;;;;;38.77;20.73;;;3.90;1.00;;;;;;5090850;28;20206;-74
2022/03/26 05:23:17;;;;;;;39.53;18.67;;;3.90;99.90;;;;;;5088765;28;20202;-68
2022/03/26 05:25:44;;;;;;;39.47;18.87;;;3.90;99.90;;;;;;5090163;28;20197;-68
2022/03/26 05:28:11;;;;;;;41.43;18.63;;;3.90;99.90;;;;;;5091156;28;20194;-74
2022/03/26 05:30:40;;;;;;;42.37;19.07;;;4.00;99.90;;;;;;5089062;28;20212;-74
2022/03/26 05:33:07;;;;;;;35.53;18.20;;;4.10;99.90;;;;;;5089386;28;20197;-74
2022/03/26 05:35:34;;;;;;;36.27;18.40;;;4.10;99.90;;;;;;5090687;28;20751;-75
2022/03/26 05:38:02;;;;;;;40.37;19.97;;;4.00;99.90;;;;;;5092396;28;20197;-75
2022/03/26 05:40:29;;;;;;;41.50;20.27;;;3.90;99.90;;;;;;5090635;28;20229;-76
2022/03/26 05:42:56;;;;;;;36.40;19.83;;;4.00;1.00;;;;;;5091596;28;20258;-75
2022/03/26 05:45:23;;;;;;;37.93;18.40;;;4.30;99.90;;;;;;5090363;28;20254;-75
2022/03/26 05:47:56;;;;;;;37.00;19.33;;;4.30;99.90;;;;;;5098339;28;20198;-68
2022/03/26 05:50:24;;;;;;;40.80;20.00;;;4.30;99.90;;;;;;5088923;28;20202;-68
2022/03/26 05:52:51;;;;;;;42.40;20.80;;;4.30;99.90;;;;;;5089652;28;20273;-68
2022/03/26 05:55:18;;;;;;;38.53;20.80;;;4.30;99.90;;;;;;5090804;28;20193;-68
2022/03/26 05:57:45;;;;;;;47.23;23.80;;;4.60;99.90;;;;;;5089702;28;20660;-69
2022/03/26 06:00:13;;;;;;;44.80;22.47;;;5.10;19.30;;;;;;5090851;28;20652;-68
2022/03/26 06:02:40;;;;;;;38.63;19.70;;;5.50;1.00;;;;;;5090095;28;20722;-75
2022/03/26 06:05:09;;;;;;;37.53;20.97;;;6.20;99.90;;;;;;5090761;28;20198;-69
2022/03/26 06:07:37;;;;;;;41.43;20.97;;;6.60;99.90;;;;;;5089430;28;20194;-69
2022/03/26 06:10:05;;;;;;;34.70;18.97;;;6.90;1.00;;;;;;5089121;28;20438;-68
2022/03/26 06:12:32;;;;;;;41.87;20.33;;;7.50;99.90;;;;;;5091163;28;20194;-68
2022/03/26 06:14:59;;;;;;;37.17;19.90;;;7.90;1.00;;;;;;5088951;28;20227;-69
2022/03/26 06:17:26;;;;;;;38.07;20.23;;;8.20;99.90;;;;;;5090572;28;20229;-76
2022/03/26 06:19:53;;;;;;;37.47;19.80;;;8.20;19.30;;;;;;5089875;28;20628;-69
2022/03/26 06:22:21;;;;;;;36.57;20.47;;;8.00;99.00;;;;;;5089713;28;20220;-69
2022/03/26 06:24:48;;;;;;;35.93;20.80;;;7.90;99.90;;;;;;5090170;28;20255;-69
2022/03/26 06:27:16;;;;;;;38.37;20.37;;;7.70;99.90;;;;;;5091114;28;20206;-69
2022/03/26 06:29:43;;;;;;;43.77;21.73;;;7.60;1.00;;;;;;5089776;28;20745;-70
2022/03/26 06:32:10;;;;;;;37.43;21.10;;;7.10;99.90;;;;;;5089263;28;20247;-76
2022/03/26 06:34:37;;;;;;;37.37;20.23;;;6.60;1.00;;;;;;5090302;28;20216;-69
2022/03/26 06:37:04;;;;;;;38.97;20.07;;;6.80;99.90;;;;;;5092316;28;20217;-69
2022/03/26 06:39:32;;;;;;;40.63;21.47;;;6.80;99.90;;;;;;5089976;28;20210;-69
2022/03/26 06:41:59;;;;;;;37.07;20.33;;;7.20;1.00;;;;;;5088297;28;20209;-68
2022/03/26 06:44:26;;;;;;;39.53;21.53;;;7.60;1.00;;;;;;5077429;28;20687;-68
2022/03/26 06:46:53;;;;;;;40.53;21.53;;;7.40;1.00;;;;;;5086152;28;20205;-68
2022/03/26 06:49:20;;;;;;;39.13;20.70;;;7.80;1.00;;;;;;5088508;28;20209;-68
2022/03/26 06:51:46;;;;;;;36.73;21.23;;;8.10;99.90;;;;;;5089088;28;20208;-70
2022/03/26 06:54:13;;;;;;;40.17;21.60;;;7.90;1.00;;;;;;5088681;28;20213;-70
2022/03/26 06:56:42;;;;;;;37.43;20.47;;;8.20;1.00;;;;;;5088176;28;20745;-70
2022/03/26 06:59:09;;;;;;;37.87;20.70;;;8.10;1.00;;;;;;5088436;28;20213;-68
2022/03/26 07:01:36;;;;;;;38.37;20.53;;;7.90;99.90;;;;;;5082242;28;20202;-67
2022/03/26 07:04:03;;;;;;;42.00;22.27;;;7.90;1.00;;;;;;5087159;28;20193;-74
2022/03/26 07:06:30;;;;;;;43.43;23.43;;;7.90;1.00;;;;;;5088883;28;20593;-75
2022/03/26 07:08:57;;;;;;;37.30;22.13;;;7.90;1.00;;;;;;5087573;28;20190;-74
2022/03/26 07:11:24;;;;;;;42.87;22.67;;;8.00;99.90;;;;;;5090015;28;20197;-74
2022/03/26 07:13:52;;;;;;;43.77;23.50;;;8.20;1.00;;;;;;5091575;28;20212;-74
2022/03/26 07:16:19;;;;;;;45.83;24.23;;;8.10;1.00;;;;;;5094411;28;20232;-74
2022/03/26 07:18:46;;;;;;;45.47;23.87;;;8.40;99.90;;;;;;5093546;28;20735;-74
2022/03/26 07:21:13;;;;;;;44.13;23.20;;;8.90;1.00;;;;;;5094621;28;20296;-74
2022/03/26 07:23:40;;;;;;;44.17;23.10;;;9.70;1.00;;;;;;5093442;28;20671;-74
2022/03/26 07:26:06;;;;;;;44.57;24.77;;;9.70;1.00;;;;;;5094783;28;20208;-74
2022/03/26 07:28:33;;;;;;;42.97;23.53;;;9.70;1.00;;;;;;5094270;28;20198;-75
2022/03/26 07:31:01;;;;;;;45.90;24.73;;;9.50;1.00;;;;;;5094133;28;20201;-75
2022/03/26 07:33:28;;;;;;;43.10;24.20;;;9.30;1.00;;;;;;5094184;28;20190;-75
2022/03/26 07:35:55;;;;;;;42.97;22.77;;;9.80;1.00;;;;;;5094284;28;20704;-74
2022/03/26 07:38:22;;;;;;;44.50;23.80;;;10.40;1.00;;;;;;5093523;28;20190;-74
2022/03/26 07:40:49;;;;;;;42.33;22.97;;;10.40;1.00;;;;;;5094092;28;20231;-74
2022/03/26 07:43:16;;;;;;;48.50;24.33;;;10.70;1.00;;;;;;5094664;28;20237;-74
2022/03/26 07:45:43;;;;;;;41.60;23.50;;;10.40;1.00;;;;;;5094389;28;20206;-74
2022/03/26 07:48:11;;;;;;;44.73;24.27;;;10.80;99.90;;;;;;5094118;28;20664;-74
2022/03/26 07:50:39;;;;;;;42.67;24.03;;;11.50;99.90;;;;;;5094607;28;20483;-74
2022/03/26 07:53:06;;;;;;;48.63;26.17;;;12.20;1.00;;;;;;5093882;28;20221;-75
2022/03/26 07:55:33;;;;;;;43.17;25.43;;;12.80;1.00;;;;;;5094124;28;20206;-75
2022/03/26 07:58:00;;;;;;;44.60;23.70;;;13.20;99.90;;;;;;5093873;28;20247;-74
2022/03/26 08:00:26;;;;;;;40.23;22.27;;;11.90;1.00;;;;;;5093557;28;20247;-74
2022/03/26 08:02:53;;;;;;;43.63;23.87;;;12.10;1.00;;;;;;5092932;28;20656;-76
2022/03/26 08:05:22;;;;;;;41.70;23.37;;;12.60;1.00;;;;;;5093812;28;20217;-75
2022/03/26 08:07:48;;;;;;;42.30;23.37;;;12.80;1.00;;;;;;5095946;28;20651;-76
2022/03/26 08:10:15;;;;;;;40.43;23.03;;;11.70;1.00;;;;;;5094001;28;20194;-75
2022/03/26 08:12:42;;;;;;;44.40;24.23;;;12.70;1.00;;;;;;5092472;28;20204;-74
2022/03/26 08:15:10;;;;;;;42.77;23.27;;;12.60;1.00;;;;;;5093436;28;20574;-74
2022/03/26 08:17:37;;;;;;;37.87;22.43;;;12.60;1.00;;;;;;5092805;28;20618;-69
2022/03/26 08:20:04;;;;;;;40.63;22.47;;;12.30;1.00;;;;;;5092162;28;20202;-70
2022/03/26 08:22:34;;;;;;;39.67;22.67;;;12.20;1.00;;;;;;5092874;28;20254;-69
2022/03/26 08:25:02;;;;;;;41.40;23.10;;;12.00;1.00;;;;;;5090765;28;20204;-76
2022/03/26 08:27:29;;;;;;;39.03;22.70;;;11.90;99.90;;;;;;5093008;28;20604;-76
2022/03/26 08:29:56;;;;;;;37.60;22.13;;;12.10;47.50;;;;;;5092351;28;20201;-75
2022/03/26 08:32:23;;;;;;;39.20;22.90;;;12.30;1.00;;;;;;5092610;28;20535;-75
2022/03/26 08:34:50;;;;;;;39.30;22.30;;;12.40;1.00;;;;;;5092591;28;20190;-75
2022/03/26 08:37:17;;;;;;;36.70;22.03;;;12.50;1.00;;;;;;5091479;28;20308;-75
2022/03/26 08:39:46;;;;;;;35.63;21.07;;;12.70;1.00;;;;;;5091852;28;20209;-74
2022/03/26 08:42:13;;;;;;;39.07;22.37;;;12.70;1.00;;;;;;5092200;28;20266;-75
2022/03/26 08:44:40;;;;;;;38.17;22.20;;;13.00;1.00;;;;;;5092731;28;20205;-74
2022/03/26 08:47:07;;;;;;;39.03;22.37;;;13.10;1.00;;;;;;5084586;28;20243;-75
2022/03/26 08:49:36;;;;;;;38.13;22.47;;;13.20;1.00;;;;;;5090833;28;20206;-70
2022/03/26 08:52:04;;;;;;;39.20;22.40;;;13.30;1.00;;;;;;5091159;28;20281;-69
2022/03/26 08:54:31;;;;;;;37.57;23.57;;;13.50;1.00;;;;;;5092263;28;20259;-70
2022/03/26 08:57:01;;;;;;;37.10;21.50;;;13.70;1.00;;;;;;5091967;28;20267;-70
2022/03/26 08:59:28;;;;;;;34.20;19.90;;;14.00;1.00;;;;;;5091172;28;20237;-70
2022/03/26 09:01:55;;;;;;;35.33;22.40;;;14.30;1.00;;;;;;5092453;28;20280;-70
2022/03/26 09:04:22;;;;;;;38.53;22.57;;;14.60;99.90;;;;;;5091503;28;20205;-76
2022/03/26 09:06:50;;;;;;;33.20;19.80;;;14.80;99.90;;;;;;5092518;28;20251;-75
2022/03/26 09:09:17;;;;;;;33.27;18.63;;;15.20;20.60;;;;;;5091064;28;20256;-75
2022/03/26 09:11:44;;;;;;;29.97;18.90;;;14.70;1.00;;;;;;5092211;28;20614;-75
2022/03/26 09:14:14;;;;;;;30.07;17.67;;;14.90;1.00;;;;;;5090878;28;20198;-74
2022/03/26 09:16:41;;;;;;;27.80;17.27;;;15.20;1.00;;;;;;5076090;28;20222;-74
2022/03/26 09:19:08;;;;;;;26.37;16.47;;;15.30;1.00;;;;;;5089216;28;20225;-75
2022/03/26 09:21:35;;;;;;;31.27;18.57;;;15.70;1.00;;;;;;5090597;28;20198;-74
2022/03/26 09:24:02;;;;;;;28.73;18.30;;;16.00;1.00;;;;;;5089791;28;20189;-74
2022/03/26 09:26:29;;;;;;;28.42;17.55;;;15.90;1.00;;;;;;5092116;28;20209;-76
2022/03/26 09:28:56;;;;;;;26.77;15.70;;;15.90;1.00;;;;;;5091233;28;20645;-76
2022/03/26 09:31:24;;;;;;;27.75;16.63;;;16.40;1.00;;;;;;5091583;28;20717;-76
2022/03/26 09:33:51;;;;;;;25.98;16.10;;;16.20;1.00;;;;;;5091746;28;20197;-76
2022/03/26 09:36:18;;;;;;;26.67;16.67;;;16.40;1.00;;;;;;5090527;28;20202;-76
2022/03/26 09:38:45;;;;;;;27.67;17.15;;;16.30;1.00;;;;;;5096716;28;20626;-75
2022/03/26 09:41:13;;;;;;;30.92;18.27;;;16.30;1.00;;;;;;5091951;28;20205;-76
2022/03/26 09:43:41;;;;;;;29.17;17.88;;;16.40;1.00;;;;;;5091783;28;20201;-76
2022/03/26 09:46:08;;;;;;;31.48;19.50;;;16.50;1.00;;;;;;5091999;28;20197;-75
2022/03/26 09:48:38;;;;;;;31.00;18.42;;;16.40;1.00;;;;;;5101394;28;20261;-70
2022/03/26 09:51:05;;;;;;;27.83;17.52;;;16.60;1.00;;;;;;5096325;28;20631;-70
2022/03/26 09:53:32;;;;;;;30.33;18.38;;;16.80;1.00;;;;;;5090535;28;20208;-70
2022/03/26 09:56:00;;;;;;;31.55;19.58;;;17.00;1.00;;;;;;5090472;28;20308;-70
2022/03/26 09:58:27;;;;;;;32.35;20.20;;;16.90;1.00;;;;;;5089410;28;20221;-70
2022/03/26 10:00:54;;;;;;;29.58;19.92;;;16.80;1.00;;;;;;5090705;28;20285;-70
2022/03/26 10:03:21;;;;;;;31.25;18.95;;;17.00;1.00;;;;;;5091507;28;20200;-71
2022/03/26 10:05:49;;;;;;;30.70;18.73;;;17.10;1.00;;;;;;5091509;28;20202;-70
2022/03/26 10:08:22;;;;;;;32.72;19.55;;;17.20;1.00;;;;;;5089435;28;20254;-70
2022/03/26 10:10:51;;;;;;;29.45;18.58;;;17.30;1.00;;;;;;5090967;28;20205;-74
2022/03/26 10:13:38;;;;;;;27.40;17.20;;;17.30;1.00;;;;;;5090527;28;20225;-75
2022/03/26 10:16:08;;;;;;;27.42;17.35;;;17.30;1.00;;;;;;5090566;28;20178;-74
2022/03/26 10:18:37;;;;;;;26.63;16.92;;;17.20;1.00;;;;;;5090567;28;20217;-75
2022/03/26 10:21:08;;;;;;;23.73;15.63;;;17.20;1.00;;;;;;5090951;28;20204;-76
2022/03/26 10:23:35;;;;;;;25.40;16.27;;;17.00;1.00;;;;;;5091606;28;20213;-76
2022/03/26 10:26:10;;;;;;;25.77;17.02;;;17.20;1.00;;;;;;5091275;28;20267;-76
2022/03/26 10:28:40;;;;;;;26.17;16.17;;;17.40;1.00;;;;;;5090892;28;20686;-76
2022/03/26 10:34:10;;;;;;;23.42;14.43;;;17.80;1.00;;;;;;5067876;28;20198;-76
2022/03/26 10:36:40;;;;;;;23.95;14.73;;;17.30;1.00;;;;;;5091292;28;20682;-76
2022/03/26 10:39:14;;;;;;;23.80;15.13;;;17.80;1.00;;;;;;5089588;28;20656;-76
2022/03/26 10:41:41;;;;;;;26.92;14.07;;;17.50;1.00;;;;;;5089820;28;20233;-71
2022/03/26 10:44:10;;;;;;;25.50;15.35;;;17.40;1.00;;;;;;5090007;28;20202;-70
2022/03/26 10:46:48;;;;;;;25.73;15.65;;;17.70;1.00;;;;;;5090196;28;20240;-71
2022/03/26 10:49:24;;;;;;;26.35;16.77;;;17.40;1.00;;;;;;5076165;28;20197;-71
2022/03/26 10:51:53;;;;;;;24.80;16.25;;;17.70;1.00;;;;;;5094404;28;20190;-71
2022/03/26 10:54:29;;;;;;;25.52;16.35;;;18.10;1.00;;;;;;5093561;28;20267;-71
2022/03/26 10:56:58;;;;;;;26.38;17.40;;;18.30;1.00;;;;;;5094576;28;20194;-71
2022/03/26 10:59:25;;;;;;;25.95;16.70;;;18.00;1.00;;;;;;5094146;28;20571;-71
2022/03/26 11:01:52;;;;;;;25.25;15.63;;;18.10;1.00;;;;;;5093793;28;20252;-71
2022/03/26 11:04:19;;;;;;;25.13;16.30;;;18.30;1.00;;;;;;5092172;28;20297;-71
2022/03/26 11:06:48;;;;;;;26.33;15.88;;;18.10;1.00;;;;;;5094461;28;20198;-71
2022/03/26 11:09:18;;;;;;;25.58;16.38;;;17.90;1.00;;;;;;5092030;28;20717;-71
2022/03/26 11:11:46;;;;;;;27.52;16.85;;;17.80;1.00;;;;;;5094098;28;20233;-71
2022/03/26 11:14:18;;;;;;;25.15;16.83;;;18.30;1.00;;;;;;5094261;28;20659;-71
2022/03/26 11:17:03;;;;;;;24.90;16.50;;;18.30;1.00;;;;;;5093658;28;20710;-71
2022/03/26 11:19:41;;;;;;;26.50;17.73;;;18.10;1.00;;;;;;5093706;28;20194;-71
2022/03/26 11:22:28;;;;;;;27.45;16.98;;;17.80;1.00;;;;;;5092648;28;20361;-71
2022/03/26 11:25:25;;;;;;;28.08;18.23;;;18.00;1.00;;;;;;5092682;28;20243;-76
2022/03/26 11:28:18;;;;;;;24.83;17.63;;;18.50;1.00;;;;;;5093859;28;20198;-76
2022/03/26 11:30:50;;;;;;;26.83;16.60;;;18.70;1.00;;;;;;5092930;28;20299;-75
2022/03/26 11:33:20;;;;;;;19.70;13.23;;;18.70;1.00;;;;;;5094639;28;20592;-71
2022/03/26 11:35:55;;;;;;;22.20;14.20;;;18.30;99.90;;;;;;5093639;28;20271;-71
2022/03/26 11:38:24;;;;;;;22.20;13.85;;;18.00;1.00;;;;;;5091940;28;20261;-71
2022/03/26 11:40:54;;;;;;;23.38;13.82;;;18.50;1.00;;;;;;5091842;28;20198;-71
2022/03/26 11:43:53;;;;;;;25.30;15.18;;;18.20;99.90;;;;;;5094256;28;20620;-71
2022/03/26 11:52:19;;;;;;;28.85;15.15;;;18.20;99.90;;;;;;5092234;28;20232;-70
2022/03/26 11:54:47;;;;;;;21.42;13.80;;;18.00;99.90;;;;;;5092510;28;20640;-70
2022/03/26 11:57:20;;;;;;;24.52;14.45;;;18.30;99.90;;;;;;5092929;28;20201;-76
2022/03/26 11:59:49;;;;;;;24.27;14.43;;;18.90;99.90;;;;;;5091657;28;20266;-76
2022/03/26 12:02:18;;;;;;;22.65;15.07;;;18.60;99.90;;;;;;5092933;28;20205;-76
2022/03/26 12:04:51;;;;;;;23.00;15.30;;;18.70;99.90;;;;;;5092583;28;20244;-76
2022/03/26 12:07:18;;;;;;;22.80;14.82;;;18.80;99.90;;;;;;5092669;28;20201;-75
2022/03/26 12:09:46;;;;;;;23.70;15.73;;;18.70;99.90;;;;;;5092457;28;20717;-74
2022/03/26 12:12:45;;;;;;;24.05;15.10;;;19.00;99.90;;;;;;5092631;28;20204;-74
2022/03/26 12:15:30;;;;;;;22.90;14.30;;;18.80;99.90;;;;;;5092290;28;20267;-74
2022/03/26 12:18:14;;;;;;;23.27;15.63;;;18.40;99.90;;;;;;5090589;28;20221;-74
2022/03/26 12:20:43;;;;;;;23.55;15.43;;;19.10;99.90;;;;;;5091026;28;20209;-75
2022/03/26 12:23:13;;;;;;;23.67;15.45;;;19.20;99.90;;;;;;5086309;28;20197;-74
2022/03/26 12:25:46;;;;;;;26.95;15.65;;;18.70;99.90;;;;;;5091087;28;20262;-74
2022/03/26 12:28:16;;;;;;;25.00;16.13;;;18.90;99.90;;;;;;5090591;28;20197;-70
2022/03/26 12:30:47;;;;;;;23.65;16.33;;;18.80;99.90;;;;;;5091694;28;20229;-69
2022/03/26 12:33:14;;;;;;;27.55;16.23;;;18.50;99.90;;;;;;5092437;28;20551;-69
2022/03/26 12:35:47;;;;;;;23.58;15.20;;;18.30;99.90;;;;;;5090395;28;20231;-69
2022/03/26 12:38:15;;;;;;;22.00;14.60;;;18.50;99.90;;;;;;5090470;28;20264;-69
2022/03/26 12:40:50;;;;;;;23.55;14.45;;;18.50;99.90;;;;;;5091609;28;20270;-74
2022/03/26 12:43:18;;;;;;;22.08;14.13;;;18.30;99.90;;;;;;5092161;28;20205;-74
2022/03/26 12:45:45;;;;;;;21.75;13.98;;;18.40;99.90;;;;;;5091607;28;20210;-74
2022/03/26 12:48:13;;;;;;;21.15;13.95;;;18.40;1.00;;;;;;5091642;28;20209;-70
2022/03/26 12:50:43;;;;;;;20.00;12.85;;;18.40;1.00;;;;;;5091674;28;20207;-70
2022/03/26 12:53:12;;;;;;;21.95;13.52;;;18.40;99.90;;;;;;5091920;28;20202;-74
2022/03/26 12:55:40;;;;;;;23.10;13.88;;;18.30;99.90;;;;;;5091140;28;20202;-70